createdAt,value
2018-09-28T00:02:17.663Z,14.93
2018-09-28T00:04:45.779Z,14.91
2018-09-28T00:07:13.886Z,14.91
2018-09-28T00:09:41.977Z,14.84
2018-09-28T00:12:10.084Z,14.78
2018-09-28T00:14:38.200Z,14.78
2018-09-28T00:17:06.510Z,14.78
2018-09-28T00:19:34.600Z,14.80
2018-09-28T00:22:02.691Z,14.80
2018-09-28T00:24:30.783Z,14.63
2018-09-28T00:26:58.889Z,14.71
2018-09-28T00:29:27.004Z,14.68
2018-09-28T00:31:55.128Z,14.78
2018-09-28T00:34:23.233Z,14.73
2018-09-28T00:36:51.380Z,14.79
2018-09-28T00:39:19.476Z,14.68
2018-09-28T00:41:47.605Z,14.66
2018-09-28T00:44:15.724Z,14.65
2018-09-28T00:46:43.804Z,14.67
2018-09-28T00:49:11.946Z,14.56
2018-09-28T00:51:40.360Z,14.48
2018-09-28T00:54:08.473Z,14.48
2018-09-28T00:56:36.573Z,14.49
2018-09-28T00:59:04.673Z,14.55
2018-09-28T01:01:32.768Z,14.54
2018-09-28T01:04:00.856Z,14.48
2018-09-28T01:06:28.964Z,14.39
2018-09-28T01:08:57.069Z,14.32
2018-09-28T01:11:25.166Z,14.32
2018-09-28T01:13:53.264Z,14.33
2018-09-28T01:16:21.368Z,14.18
2018-09-28T01:18:49.468Z,14.15
2018-09-28T01:21:17.548Z,14.17
2018-09-28T01:23:45.658Z,14.06
2018-09-28T01:26:13.733Z,14.03
2018-09-28T01:28:41.876Z,14.06
2018-09-28T01:31:09.964Z,14.08
2018-09-28T01:33:38.068Z,14.11
2018-09-28T01:36:06.207Z,14.10
2018-09-28T01:38:34.280Z,14.08
2018-09-28T01:41:02.394Z,14.04
2018-09-28T01:43:30.528Z,13.95
2018-09-28T01:45:58.633Z,13.76
2018-09-28T01:48:26.768Z,13.57
2018-09-28T01:50:54.848Z,13.59
2018-09-28T01:53:22.938Z,13.53
2018-09-28T01:55:51.066Z,13.47
2018-09-28T01:58:19.146Z,13.43
2018-09-28T02:00:47.245Z,13.48
2018-09-28T02:03:15.341Z,13.40
2018-09-28T02:05:43.438Z,13.39
2018-09-28T02:08:11.544Z,13.37
2018-09-28T02:10:40.447Z,13.32
2018-09-28T02:13:08.592Z,13.31
2018-09-28T02:15:36.676Z,13.22
2018-09-28T02:18:04.762Z,13.12
2018-09-28T02:20:32.884Z,13.04
2018-09-28T02:23:01.000Z,12.95
2018-09-28T02:25:29.089Z,12.88
2018-09-28T02:27:57.194Z,12.87
2018-09-28T02:30:25.309Z,12.78
2018-09-28T02:32:53.437Z,12.84
2018-09-28T02:35:21.544Z,12.80
2018-09-28T02:37:49.872Z,12.78
2018-09-28T02:40:17.962Z,12.77
2018-09-28T02:42:46.056Z,12.72
2018-09-28T02:45:14.140Z,12.69
2018-09-28T02:47:42.481Z,12.82
2018-09-28T02:50:10.658Z,12.75
2018-09-28T02:52:38.765Z,12.74
2018-09-28T02:55:06.860Z,12.74
2018-09-28T02:57:34.970Z,12.56
2018-09-28T03:00:03.055Z,12.62
2018-09-28T03:02:31.156Z,12.61
2018-09-28T03:04:59.245Z,12.57
2018-09-28T03:07:27.329Z,12.56
2018-09-28T03:09:55.417Z,12.57
2018-09-28T03:12:23.504Z,12.50
2018-09-28T03:14:51.613Z,12.47
2018-09-28T03:17:19.692Z,12.47
2018-09-28T03:19:47.785Z,12.46
2018-09-28T03:22:15.863Z,12.51
2018-09-28T03:24:43.975Z,12.49
2018-09-28T03:27:12.069Z,12.40
2018-09-28T03:29:40.202Z,12.43
2018-09-28T03:32:08.287Z,12.48
2018-09-28T03:34:36.381Z,12.41
2018-09-28T03:37:04.580Z,12.43
2018-09-28T03:39:32.692Z,12.43
2018-09-28T03:42:00.770Z,12.42
2018-09-28T03:44:28.877Z,12.40
2018-09-28T03:46:56.957Z,12.44
2018-09-28T03:49:25.062Z,12.36
2018-09-28T03:51:53.147Z,12.40
2018-09-28T03:54:21.244Z,12.37
2018-09-28T03:56:49.345Z,12.36
2018-09-28T03:59:17.420Z,12.30
2018-09-28T04:01:45.539Z,12.28
2018-09-28T04:04:13.599Z,12.32
2018-09-28T04:06:41.710Z,12.26
2018-09-28T04:09:11.083Z,12.24
2018-09-28T04:11:39.172Z,12.24
2018-09-28T04:14:07.440Z,12.28
2018-09-28T04:16:35.637Z,12.21
2018-09-28T04:19:03.756Z,12.14
2018-09-28T04:21:31.896Z,12.08
2018-09-28T04:24:00.149Z,12.11
2018-09-28T04:26:28.256Z,12.03
2018-09-28T04:28:56.352Z,11.95
2018-09-28T04:31:24.463Z,11.96
2018-09-28T04:33:52.560Z,11.99
2018-09-28T04:36:20.656Z,12.04
2018-09-28T04:38:48.768Z,11.95
2018-09-28T04:41:16.834Z,11.93
2018-09-28T04:43:44.928Z,11.96
2018-09-28T04:46:13.045Z,11.96
2018-09-28T04:48:41.134Z,11.93
2018-09-28T04:51:09.223Z,11.84
2018-09-28T04:53:37.479Z,11.87
2018-09-28T04:56:05.564Z,11.89
2018-09-28T04:58:33.674Z,11.82
2018-09-28T05:01:01.792Z,11.74
2018-09-28T05:03:29.898Z,11.65
2018-09-28T05:05:57.978Z,11.65
2018-09-28T05:08:26.061Z,11.58
2018-09-28T05:10:54.173Z,11.49
2018-09-28T05:13:22.266Z,11.41
2018-09-28T05:15:50.344Z,11.38
2018-09-28T05:18:18.464Z,11.26
2018-09-28T05:20:46.574Z,11.18
2018-09-28T05:23:14.653Z,11.17
2018-09-28T05:25:42.776Z,11.15
2018-09-28T05:28:10.888Z,11.07
2018-09-28T05:30:44.972Z,11.01
2018-09-28T05:33:07.145Z,10.98
2018-09-28T05:35:35.160Z,10.97
2018-09-28T05:38:03.241Z,10.87
2018-09-28T05:40:31.346Z,10.84
2018-09-28T05:42:59.441Z,10.82
2018-09-28T05:45:27.561Z,10.78
2018-09-28T05:47:55.693Z,10.75
2018-09-28T05:50:23.810Z,10.81
2018-09-28T05:52:51.921Z,10.80
2018-09-28T05:55:20.031Z,10.81
2018-09-28T05:57:51.589Z,10.82
2018-09-28T06:00:25.023Z,10.88
2018-09-28T06:02:58.511Z,10.82
2018-09-28T06:05:33.201Z,10.89
2018-09-28T06:08:02.312Z,10.85
2018-09-28T06:10:30.420Z,10.81
2018-09-28T06:12:58.540Z,10.81
2018-09-28T06:15:26.641Z,10.83
2018-09-28T06:17:54.796Z,10.88
2018-09-28T06:20:22.828Z,10.96
2018-09-28T06:22:50.909Z,11.08
2018-09-28T06:25:19.000Z,11.14
2018-09-28T06:27:47.102Z,11.12
2018-09-28T06:30:15.199Z,11.05
2018-09-28T06:32:43.264Z,11.11
2018-09-28T06:35:11.357Z,11.12
2018-09-28T06:37:39.484Z,11.29
2018-09-28T06:40:07.713Z,11.37
2018-09-28T06:42:35.892Z,11.38
2018-09-28T06:45:03.998Z,11.38
2018-09-28T06:47:32.080Z,11.44
2018-09-28T06:50:00.212Z,11.49
2018-09-28T06:52:28.634Z,11.60
2018-09-28T06:54:56.729Z,11.72
2018-09-28T06:57:24.844Z,11.68
2018-09-28T06:59:52.999Z,11.80
2018-09-28T07:02:21.127Z,11.96
2018-09-28T07:04:49.227Z,11.94
2018-09-28T07:07:17.360Z,12.04
2018-09-28T07:09:45.437Z,12.05
2018-09-28T07:12:13.579Z,12.23
2018-09-28T07:14:41.588Z,12.19
2018-09-28T07:17:09.688Z,12.35
2018-09-28T07:19:37.821Z,12.29
2018-09-28T07:22:06.033Z,12.37
2018-09-28T07:24:34.174Z,12.40
2018-09-28T07:27:02.268Z,12.44
2018-09-28T07:29:30.364Z,12.55
2018-09-28T07:31:58.481Z,12.73
2018-09-28T07:34:26.582Z,12.67
2018-09-28T07:36:54.744Z,12.74
2018-09-28T07:39:22.805Z,12.62
2018-09-28T07:41:50.949Z,12.68
2018-09-28T07:44:18.956Z,12.62
2018-09-28T07:46:47.063Z,12.65
2018-09-28T07:49:15.200Z,12.89
2018-09-28T07:51:43.274Z,12.98
2018-09-28T07:54:11.410Z,13.11
2018-09-28T07:56:39.505Z,13.08
2018-09-28T07:59:07.612Z,13.12
2018-09-28T08:01:35.740Z,13.17
2018-09-28T08:04:03.868Z,13.25
2018-09-28T08:06:31.950Z,13.21
2018-09-28T08:09:00.053Z,13.22
2018-09-28T08:11:28.151Z,13.27
2018-09-28T08:13:56.274Z,13.30
2018-09-28T08:16:24.341Z,13.26
2018-09-28T08:18:52.404Z,13.23
2018-09-28T08:21:20.489Z,13.36
2018-09-28T08:23:48.602Z,13.53
2018-09-28T08:26:16.691Z,13.41
2018-09-28T08:28:44.776Z,13.55
2018-09-28T08:31:12.880Z,13.51
2018-09-28T08:33:41.617Z,13.58
2018-09-28T08:36:09.774Z,13.71
2018-09-28T08:38:37.847Z,13.69
2018-09-28T08:41:05.985Z,13.63
2018-09-28T08:43:34.130Z,13.48
2018-09-28T08:46:02.216Z,13.42
2018-09-28T08:48:30.377Z,13.62
2018-09-28T08:50:58.448Z,13.87
2018-09-28T08:53:26.534Z,13.93
2018-09-28T08:55:54.682Z,13.97
2018-09-28T08:58:22.721Z,13.99
2018-09-28T09:00:50.840Z,13.97
2018-09-28T09:03:18.957Z,13.98
2018-09-28T09:05:47.056Z,13.93
2018-09-28T09:08:15.145Z,14.04
2018-09-28T09:10:43.250Z,14.14
2018-09-28T09:13:11.352Z,14.07
2018-09-28T09:15:39.443Z,14.01
2018-09-28T09:18:07.591Z,13.90
2018-09-28T09:20:35.661Z,13.74
2018-09-28T09:23:03.748Z,13.69
2018-09-28T09:25:31.854Z,13.70
2018-09-28T09:27:59.946Z,13.89
2018-09-28T09:30:28.026Z,14.01
2018-09-28T09:32:56.104Z,14.23
2018-09-28T09:35:24.253Z,14.26
2018-09-28T09:37:52.352Z,14.35
2018-09-28T09:40:20.557Z,14.32
2018-09-28T09:42:48.678Z,14.22
2018-09-28T09:45:16.769Z,14.23
2018-09-28T09:47:44.879Z,13.96
2018-09-28T09:50:13.130Z,13.83
2018-09-28T09:52:41.228Z,13.82
2018-09-28T09:55:09.390Z,13.93
2018-09-28T09:57:37.609Z,14.02
2018-09-28T10:00:05.949Z,14.22
2018-09-28T10:02:39.421Z,14.29
2018-09-28T10:05:07.480Z,14.53
2018-09-28T10:07:35.585Z,14.49
2018-09-28T10:10:03.681Z,14.72
2018-09-28T10:12:31.876Z,14.83
2018-09-28T10:14:59.908Z,14.94
2018-09-28T10:17:28.011Z,14.77
2018-09-28T10:19:56.112Z,14.82
2018-09-28T10:22:24.168Z,14.94
2018-09-28T10:24:52.268Z,14.95
2018-09-28T10:27:20.399Z,14.77
2018-09-28T10:29:48.448Z,14.64
2018-09-28T10:34:50.983Z,14.48
2018-09-28T10:37:18.981Z,14.91
2018-09-28T10:39:47.177Z,14.80
2018-09-28T10:42:15.197Z,14.93
2018-09-28T10:44:43.327Z,14.79
2018-09-28T10:47:11.372Z,14.88
2018-09-28T10:49:39.480Z,14.96
2018-09-28T10:52:08.032Z,14.94
2018-09-28T10:54:36.236Z,14.65
2018-09-28T10:57:04.397Z,14.98
2018-09-28T10:59:32.513Z,15.27
2018-09-28T11:02:00.592Z,15.28
2018-09-28T11:04:28.709Z,14.92
2018-09-28T11:06:56.820Z,14.86
2018-09-28T11:09:24.962Z,14.47
2018-09-28T11:11:53.068Z,14.60
2018-09-28T11:14:21.177Z,14.52
2018-09-28T11:16:49.293Z,14.62
2018-09-28T11:19:17.381Z,14.57
2018-09-28T11:21:45.560Z,14.48
2018-09-28T11:24:13.600Z,14.41
2018-09-28T11:26:41.713Z,14.66
2018-09-28T11:29:09.824Z,14.67
2018-09-28T11:31:37.949Z,14.89
2018-09-28T11:34:06.033Z,14.90
2018-09-28T11:36:34.153Z,14.89
2018-09-28T11:39:02.354Z,14.98
2018-09-28T11:41:30.480Z,15.18
2018-09-28T11:43:58.592Z,15.08
2018-09-28T11:46:26.720Z,14.89
2018-09-28T11:48:54.852Z,14.98
2018-09-28T11:51:23.033Z,14.84
2018-09-28T11:53:51.079Z,14.93
2018-09-28T11:56:19.192Z,15.28
2018-09-28T11:58:47.313Z,15.57
2018-09-28T12:01:15.393Z,15.64
2018-09-28T12:03:43.797Z,15.57
2018-09-28T12:06:11.898Z,15.31
2018-09-28T12:08:39.987Z,15.37
2018-09-28T12:11:08.174Z,15.65
2018-09-28T12:13:36.229Z,15.89
2018-09-28T12:16:04.308Z,15.99
2018-09-28T12:18:32.509Z,15.68
2018-09-28T12:21:00.736Z,15.29
2018-09-28T12:23:28.893Z,14.98
2018-09-28T12:25:57.109Z,15.21
2018-09-28T12:28:25.231Z,15.38
2018-09-28T12:30:53.330Z,15.57
2018-09-28T12:33:21.505Z,15.61
2018-09-28T12:35:49.573Z,15.60
2018-09-28T12:38:17.651Z,15.67
2018-09-28T12:40:45.776Z,15.67
2018-09-28T12:43:13.884Z,15.77
2018-09-28T12:45:42.068Z,15.93
2018-09-28T12:48:10.174Z,15.95
2018-09-28T12:50:38.257Z,16.09
2018-09-28T12:53:06.413Z,16.24
2018-09-28T12:55:34.505Z,16.25
2018-09-28T12:58:02.612Z,16.46
2018-09-28T13:00:30.787Z,16.59
2018-09-28T13:02:58.842Z,16.44
2018-09-28T13:05:26.981Z,16.44
2018-09-28T13:07:55.053Z,16.39
2018-09-28T13:10:23.200Z,16.23
2018-09-28T13:12:51.392Z,15.70
2018-09-28T13:15:19.429Z,15.82
2018-09-28T13:17:47.524Z,15.79
2018-09-28T13:20:15.716Z,15.46
2018-09-28T13:22:43.766Z,15.68
2018-09-28T13:25:11.865Z,15.96
2018-09-28T13:27:39.971Z,15.72
2018-09-28T13:30:08.080Z,15.77
2018-09-28T13:32:36.184Z,15.71
2018-09-28T13:35:04.312Z,15.16
2018-09-28T13:37:32.415Z,14.97
2018-09-28T13:40:00.515Z,14.88
2018-09-28T13:42:28.615Z,14.91
2018-09-28T13:44:56.741Z,14.99
2018-09-28T13:47:24.836Z,15.12
2018-09-28T13:49:53.052Z,15.48
2018-09-28T13:52:21.184Z,15.57
2018-09-28T13:54:49.389Z,15.42
2018-09-28T13:57:17.324Z,15.08
2018-09-28T13:59:45.418Z,14.58
2018-09-28T14:02:13.534Z,14.34
2018-09-28T14:04:41.807Z,14.23
2018-09-28T14:07:10.124Z,14.27
2018-09-28T14:09:38.068Z,14.30
2018-09-28T14:12:06.193Z,14.27
2018-09-28T14:14:34.318Z,14.21
2018-09-28T14:17:02.385Z,14.34
2018-09-28T14:19:30.519Z,14.33
2018-09-28T14:21:58.649Z,14.34
2018-09-28T14:24:26.750Z,14.42
2018-09-28T14:26:54.846Z,14.43
2018-09-28T14:29:22.949Z,14.57
2018-09-28T14:31:51.055Z,14.66
2018-09-28T14:34:19.208Z,14.70
2018-09-28T14:36:47.383Z,14.69
2018-09-28T14:39:15.451Z,14.70
2018-09-28T14:41:43.603Z,14.71
2018-09-28T14:44:11.725Z,14.71
2018-09-28T14:46:39.844Z,14.69
2018-09-28T14:49:08.027Z,14.61
2018-09-28T14:51:36.073Z,14.41
2018-09-28T14:54:04.258Z,14.33
2018-09-28T14:56:32.344Z,14.12
2018-09-28T14:59:00.439Z,14.07
2018-09-28T15:01:28.681Z,14.03
2018-09-28T15:03:56.658Z,13.98
2018-09-28T15:06:24.849Z,14.03
2018-09-28T15:08:52.894Z,14.16
2018-09-28T15:11:21.157Z,14.21
2018-09-28T15:13:49.250Z,14.24
2018-09-28T15:16:17.395Z,14.12
2018-09-28T15:18:45.493Z,14.08
2018-09-28T15:21:13.605Z,13.82
2018-09-28T15:23:42.097Z,13.69
2018-09-28T15:26:10.217Z,13.72
2018-09-28T15:28:38.332Z,13.70
2018-09-28T15:31:06.749Z,13.62
2018-09-28T15:33:34.842Z,13.78
2018-09-28T15:36:02.941Z,13.72
2018-09-28T15:38:31.100Z,13.67
2018-09-28T15:40:59.228Z,13.78
2018-09-28T15:43:27.331Z,13.52
2018-09-28T15:45:55.437Z,13.59
2018-09-28T15:48:23.563Z,13.63
2018-09-28T15:50:51.664Z,13.66
2018-09-28T15:53:19.760Z,13.56
2018-09-28T15:55:47.890Z,13.55
2018-09-28T15:58:16.086Z,13.59
2018-09-28T16:00:44.202Z,13.55
2018-09-28T16:03:12.312Z,13.44
2018-09-28T16:05:40.450Z,13.47
2018-09-28T16:08:08.561Z,13.42
2018-09-28T16:10:36.672Z,13.35
2018-09-28T16:15:39.240Z,13.19
2018-09-28T16:18:07.320Z,13.18
2018-09-28T16:20:35.436Z,13.00
2018-09-28T16:23:03.552Z,12.97
2018-09-28T16:25:31.678Z,12.94
2018-09-28T16:27:59.786Z,12.88
2018-09-28T16:30:27.884Z,12.91
2018-09-28T16:32:55.985Z,12.84
2018-09-28T16:35:24.093Z,12.77
2018-09-28T16:37:52.200Z,12.69
2018-09-28T16:40:20.292Z,12.73
2018-09-28T16:42:48.408Z,12.65
2018-09-28T16:45:16.511Z,12.61
2018-09-28T16:47:44.594Z,12.58
2018-09-28T16:50:12.671Z,12.62
2018-09-28T16:52:40.776Z,12.57
2018-09-28T16:55:08.861Z,12.48
2018-09-28T16:57:36.931Z,12.43
2018-09-28T17:00:05.111Z,12.47
2018-09-28T17:02:33.188Z,12.40
2018-09-28T17:05:01.269Z,12.29
2018-09-28T17:07:29.403Z,12.18
2018-09-28T17:09:57.516Z,12.08
2018-09-28T17:12:25.570Z,12.08
2018-09-28T17:14:53.676Z,12.08
2018-09-28T17:17:21.789Z,12.00
2018-09-28T17:19:49.874Z,11.92
2018-09-28T17:22:17.975Z,11.81
2018-09-28T17:24:46.135Z,11.81
2018-09-28T17:27:14.232Z,11.78
2018-09-28T17:29:42.309Z,11.74
2018-09-28T17:32:11.340Z,11.68
2018-09-28T17:34:39.471Z,11.61
2018-09-28T17:37:07.564Z,11.67
2018-09-28T17:39:35.648Z,11.64
2018-09-28T17:42:03.741Z,11.64
2018-09-28T17:44:31.808Z,11.56
2018-09-28T17:46:59.877Z,11.58
2018-09-28T17:49:27.969Z,11.53
2018-09-28T17:51:56.069Z,11.52
2018-09-28T17:54:24.152Z,11.47
2018-09-28T17:56:52.253Z,11.46
2018-09-28T17:59:20.356Z,11.44
2018-09-28T18:01:48.468Z,11.38
2018-09-28T18:04:16.580Z,11.28
2018-09-28T18:06:44.661Z,11.23
2018-09-28T18:09:13.296Z,11.20
2018-09-28T18:11:41.421Z,11.18
2018-09-28T18:14:09.677Z,11.10
2018-09-28T18:16:37.657Z,11.17
2018-09-28T18:19:05.832Z,11.13
2018-09-28T18:21:33.904Z,11.14
2018-09-28T18:24:02.021Z,11.18
2018-09-28T18:26:30.141Z,11.13
2018-09-28T18:28:58.265Z,11.04
2018-09-28T18:31:26.476Z,11.10
2018-09-28T18:33:54.564Z,11.02
2018-09-28T18:36:22.669Z,11.05
2018-09-28T18:38:50.757Z,11.03
2018-09-28T18:41:18.876Z,10.97
2018-09-28T18:43:46.969Z,10.90
2018-09-28T18:46:15.533Z,10.80
2018-09-28T18:48:43.637Z,10.85
2018-09-28T18:51:11.722Z,10.76
2018-09-28T18:53:40.367Z,10.72
2018-09-28T18:56:08.464Z,10.63
2018-09-28T18:58:36.575Z,10.67
2018-09-28T19:01:04.661Z,10.60
2018-09-28T19:03:32.753Z,10.66
2018-09-28T19:06:00.948Z,10.57
2018-09-28T19:08:28.974Z,10.52
2018-09-28T19:10:57.089Z,10.48
2018-09-28T19:13:25.164Z,10.48
2018-09-28T19:15:53.270Z,10.39
2018-09-28T19:18:21.357Z,10.41
2018-09-28T19:20:49.446Z,10.36
2018-09-28T19:23:17.586Z,10.33
2018-09-28T19:25:45.684Z,10.34
2018-09-28T19:28:13.740Z,10.31
2018-09-28T19:30:42.408Z,10.23
2018-09-28T19:33:10.493Z,10.22
2018-09-28T19:35:38.590Z,10.20
2018-09-28T19:38:06.676Z,10.02
2018-09-28T19:40:34.872Z,10.00
2018-09-28T19:43:03.033Z,10.00
2018-09-28T19:45:31.131Z,9.90
2018-09-28T19:47:59.206Z,9.91
2018-09-28T19:50:27.292Z,9.90
2018-09-28T19:52:55.392Z,9.90
2018-09-28T19:55:23.497Z,9.90
2018-09-28T19:57:51.625Z,9.79
2018-09-28T20:00:19.712Z,9.78
2018-09-28T20:02:47.805Z,9.69
2018-09-28T20:05:15.917Z,9.63
2018-09-28T20:07:44.008Z,9.58
2018-09-28T20:10:12.120Z,9.51
2018-09-28T20:12:40.197Z,9.52
2018-09-28T20:15:08.356Z,9.45
2018-09-28T20:17:36.445Z,9.45
2018-09-28T20:20:04.524Z,9.46
2018-09-28T20:22:32.627Z,9.42
2018-09-28T20:25:00.757Z,9.41
2018-09-28T20:27:28.832Z,9.36
2018-09-28T20:29:56.908Z,9.30
2018-09-28T20:32:25.065Z,9.34
2018-09-28T20:34:53.210Z,9.28
2018-09-28T20:37:21.280Z,9.29
2018-09-28T20:39:49.380Z,9.27
2018-09-28T20:42:17.477Z,9.23
2018-09-28T20:44:45.641Z,9.20
2018-09-28T20:47:14.069Z,9.23
2018-09-28T20:49:42.343Z,9.17
2018-09-28T20:52:10.414Z,9.11
2018-09-28T20:54:38.523Z,9.09
2018-09-28T20:57:06.604Z,9.02
2018-09-28T20:59:34.696Z,8.95
2018-09-28T21:02:02.800Z,8.92
2018-09-28T21:04:30.877Z,8.87
2018-09-28T21:06:58.999Z,8.91
2018-09-28T21:09:27.087Z,8.90
2018-09-28T21:11:55.181Z,8.78
2018-09-28T21:14:23.261Z,8.86
2018-09-28T21:16:51.365Z,8.76
2018-09-28T21:19:19.424Z,8.77
2018-09-28T21:21:47.529Z,8.78
2018-09-28T21:24:15.621Z,8.78
2018-09-28T21:26:43.692Z,8.70
2018-09-28T21:29:11.760Z,8.69
2018-09-28T21:31:39.853Z,8.57
2018-09-28T21:34:07.968Z,8.52
2018-09-28T21:36:36.057Z,8.53
2018-09-28T21:39:05.712Z,8.59
2018-09-28T21:41:33.792Z,8.61
2018-09-28T21:44:01.908Z,8.59
2018-09-28T21:46:29.995Z,8.52
2018-09-28T21:48:58.081Z,8.55
2018-09-28T21:51:26.152Z,8.60
2018-09-28T21:53:54.260Z,8.59
2018-09-28T21:56:22.344Z,8.57
2018-09-28T21:58:50.420Z,8.58
2018-09-28T22:01:19.649Z,8.57
2018-09-28T22:03:49.159Z,8.55
2018-09-28T22:06:17.273Z,8.40
2018-09-28T22:08:45.621Z,8.29
2018-09-28T22:11:14.004Z,8.03
2018-09-28T22:13:42.311Z,7.98
2018-09-28T22:16:10.406Z,8.02
2018-09-28T22:18:38.513Z,8.13
2018-09-28T22:21:06.647Z,8.18
2018-09-28T22:23:34.737Z,8.20
2018-09-28T22:26:02.819Z,8.21
2018-09-28T22:28:30.888Z,8.16
2018-09-28T22:30:58.979Z,8.10
2018-09-28T22:33:27.180Z,7.93
2018-09-28T22:35:55.288Z,7.82
2018-09-28T22:38:23.400Z,7.71
2018-09-28T22:40:51.532Z,7.71
2018-09-28T22:43:19.640Z,7.71
2018-09-28T22:45:47.717Z,7.73
2018-09-28T22:48:15.776Z,7.83
2018-09-28T22:50:43.859Z,7.77
2018-09-28T22:53:11.962Z,7.63
2018-09-28T22:55:40.076Z,7.60
2018-09-28T22:58:08.164Z,7.67
2018-09-28T23:00:36.261Z,7.65
2018-09-28T23:03:04.354Z,7.78
2018-09-28T23:05:32.446Z,7.87
2018-09-28T23:08:00.564Z,7.86
2018-09-28T23:10:28.713Z,7.86
2018-09-28T23:12:56.769Z,7.71
2018-09-28T23:15:24.847Z,7.50
2018-09-28T23:17:52.945Z,7.45
2018-09-28T23:20:21.139Z,7.41
2018-09-28T23:22:49.220Z,7.34
2018-09-28T23:25:17.315Z,7.22
2018-09-28T23:27:45.409Z,7.22
2018-09-28T23:30:13.500Z,7.21
2018-09-28T23:32:41.621Z,7.17
2018-09-28T23:35:09.720Z,7.16
2018-09-28T23:37:37.832Z,7.09
2018-09-28T23:40:06.113Z,7.04
2018-09-28T23:42:34.216Z,7.11
2018-09-28T23:45:02.328Z,6.98
2018-09-28T23:47:30.420Z,6.78
2018-09-28T23:49:58.517Z,6.70
2018-09-28T23:52:27.432Z,6.64
2018-09-28T23:54:55.537Z,6.66
2018-09-28T23:57:23.621Z,6.67
2018-09-28T23:59:51.696Z,6.74
